createdAt,value
2023-05-15T00:01:17.030Z,53.58
2023-05-15T00:06:39.977Z,53.76
2023-05-15T00:12:02.485Z,53.48
2023-05-15T00:17:25.284Z,53.44
2023-05-15T00:22:47.998Z,53.72
2023-05-15T00:28:11.606Z,54.22
2023-05-15T00:33:34.212Z,54.37
2023-05-15T00:38:56.842Z,53.96
2023-05-15T00:44:21.295Z,53.74
2023-05-15T00:49:45.820Z,53.60
2023-05-15T00:55:09.164Z,53.53
2023-05-15T01:00:33.622Z,53.50
2023-05-15T01:05:56.983Z,53.57
2023-05-15T01:11:22.224Z,53.64
2023-05-15T01:16:45.731Z,53.68
2023-05-15T01:22:38.520Z,53.66
2023-05-15T01:28:05.733Z,53.79
2023-05-15T01:33:41.412Z,54.68
2023-05-15T01:39:10.081Z,54.69
2023-05-15T01:44:52.287Z,53.91
2023-05-15T01:50:17.385Z,54.76
2023-05-15T01:55:42.381Z,53.60
2023-05-15T02:01:06.220Z,54.58
2023-05-15T02:06:30.088Z,55.12
2023-05-15T02:11:53.741Z,55.44
2023-05-15T02:17:16.785Z,56.41
2023-05-15T02:22:39.221Z,54.77
2023-05-15T02:28:10.856Z,54.48
2023-05-15T02:39:19.847Z,55.69
2023-05-15T02:44:43.617Z,55.04
2023-05-15T02:50:06.520Z,55.07
2023-05-15T02:55:29.607Z,55.90
2023-05-15T03:00:52.042Z,57.09
2023-05-15T03:06:14.445Z,56.48
2023-05-15T03:11:37.170Z,55.10
2023-05-15T03:16:59.631Z,54.41
2023-05-15T03:22:22.284Z,54.84
2023-05-15T03:27:44.651Z,54.34
2023-05-15T03:33:07.007Z,54.16
2023-05-15T03:38:29.348Z,54.37
2023-05-15T03:43:51.611Z,54.35
2023-05-15T03:49:14.394Z,54.52
2023-05-15T03:54:36.930Z,54.36
2023-05-15T03:59:59.288Z,54.56
2023-05-15T04:05:23.800Z,55.46
2023-05-15T04:10:46.576Z,56.14
2023-05-15T04:16:10.408Z,56.66
2023-05-15T04:21:32.750Z,57.05
2023-05-15T04:26:55.223Z,57.02
2023-05-15T04:32:17.747Z,57.35
2023-05-15T04:37:40.413Z,57.13
2023-05-15T04:43:04.962Z,57.35
2023-05-15T04:48:27.587Z,57.52
2023-05-15T04:53:49.866Z,57.69
2023-05-15T04:59:14.191Z,58.06
2023-05-15T05:04:36.497Z,58.25
2023-05-15T05:09:59.391Z,58.09
2023-05-15T05:15:23.287Z,58.14
2023-05-15T05:20:45.877Z,58.25
2023-05-15T05:26:10.054Z,58.15
2023-05-15T05:31:33.571Z,58.43
2023-05-15T05:36:56.531Z,58.61
2023-05-15T05:42:18.941Z,58.66
2023-05-15T05:47:41.515Z,59.37
2023-05-15T05:53:06.880Z,59.64
2023-05-15T05:58:29.286Z,59.65
2023-05-15T06:03:52.312Z,59.70
2023-05-15T06:09:14.772Z,60.36
2023-05-15T06:14:37.408Z,59.45
2023-05-15T06:20:00.587Z,58.39
2023-05-15T06:25:23.755Z,58.93
2023-05-15T06:30:46.638Z,60.28
2023-05-15T06:36:09.186Z,61.73
2023-05-15T06:41:31.488Z,63.41
2023-05-15T06:46:53.890Z,65.39
2023-05-15T06:52:16.565Z,66.59
2023-05-15T06:57:40.020Z,67.86
2023-05-15T07:03:02.360Z,68.90
2023-05-15T07:08:24.860Z,69.68
2023-05-15T07:13:47.554Z,70.42
2023-05-15T07:19:09.918Z,71.86
2023-05-15T07:24:32.264Z,72.49
2023-05-15T07:29:54.588Z,73.68
2023-05-15T07:35:17.384Z,74.56
2023-05-15T07:40:40.419Z,75.59
2023-05-15T07:46:03.060Z,76.26
2023-05-15T07:51:26.308Z,76.34
2023-05-15T07:56:49.189Z,76.26
2023-05-15T08:02:11.486Z,76.17
2023-05-15T08:07:33.977Z,75.66
2023-05-15T08:12:56.370Z,74.77
2023-05-15T08:18:22.061Z,74.25
2023-05-15T08:23:44.345Z,73.78
2023-05-15T08:29:06.774Z,74.02
2023-05-15T08:34:29.106Z,73.92
2023-05-15T08:39:51.773Z,74.19
2023-05-15T08:45:15.932Z,74.98
2023-05-15T08:50:40.951Z,74.96
2023-05-15T08:56:03.349Z,74.37
2023-05-15T09:01:27.052Z,74.31
2023-05-15T09:06:50.292Z,74.48
2023-05-15T09:12:14.248Z,75.23
2023-05-15T09:17:37.840Z,75.74
2023-05-15T09:23:00.229Z,76.35
2023-05-15T09:28:34.292Z,77.60
2023-05-15T09:33:59.820Z,78.13
2023-05-15T09:39:22.147Z,78.33
2023-05-15T09:44:48.736Z,79.12
2023-05-15T09:50:12.785Z,79.07
2023-05-15T09:55:36.727Z,79.08
2023-05-15T10:01:01.594Z,79.78
2023-05-15T10:06:25.784Z,80.92
2023-05-15T10:11:54.784Z,81.68
2023-05-15T10:17:17.382Z,81.72
2023-05-15T10:22:43.707Z,81.90
2023-05-15T10:28:07.512Z,82.31
2023-05-15T10:33:32.163Z,83.07
2023-05-15T10:38:55.642Z,84.12
2023-05-15T10:44:18.925Z,84.58
2023-05-15T10:49:41.371Z,85.21
2023-05-15T10:55:06.397Z,85.75
2023-05-15T11:00:38.546Z,86.77
2023-05-15T11:06:24.778Z,87.83
2023-05-15T11:12:07.895Z,89.11
2023-05-15T11:17:31.071Z,90.22
2023-05-15T11:22:56.012Z,91.39
2023-05-15T11:28:20.112Z,92.76
2023-05-15T11:33:44.436Z,94.17
2023-05-15T11:39:09.313Z,95.41
2023-05-15T11:44:33.092Z,96.63
2023-05-15T11:50:00.122Z,97.54
2023-05-15T11:55:25.002Z,98.42
2023-05-15T12:00:48.424Z,99.41
2023-05-15T12:06:14.180Z,100.00
2023-05-15T12:11:38.455Z,100.00
2023-05-15T12:17:04.763Z,100.00
2023-05-15T12:22:27.827Z,100.00
2023-05-15T12:27:52.336Z,100.00
2023-05-15T12:33:17.755Z,100.00
2023-05-15T12:38:42.687Z,100.00
2023-05-15T12:44:05.049Z,100.00
2023-05-15T12:49:29.329Z,100.00
2023-05-15T12:54:53.489Z,100.00
2023-05-15T13:00:21.080Z,100.00
2023-05-15T13:05:45.925Z,100.00
2023-05-15T13:11:10.741Z,100.00
2023-05-15T13:16:48.368Z,100.00
2023-05-15T13:22:11.133Z,100.00
2023-05-15T13:27:33.748Z,100.00
2023-05-15T13:32:56.482Z,100.00
2023-05-15T13:38:19.330Z,100.00
2023-05-15T13:43:42.783Z,100.00
2023-05-15T13:49:05.835Z,100.00
2023-05-15T13:54:29.767Z,100.00
2023-05-15T13:59:52.770Z,100.00
2023-05-15T14:05:16.159Z,100.00
2023-05-15T14:10:38.642Z,100.00
2023-05-15T14:16:01.170Z,100.00
2023-05-15T14:21:23.769Z,100.00
2023-05-15T14:26:46.570Z,100.00
2023-05-15T14:32:09.340Z,100.00
2023-05-15T14:37:32.698Z,100.00
2023-05-15T14:42:56.522Z,100.00
2023-05-15T14:48:19.290Z,100.00
2023-05-15T14:53:42.628Z,100.00
2023-05-15T14:59:05.222Z,100.00
2023-05-15T15:04:29.754Z,100.00
2023-05-15T15:09:53.177Z,100.00
2023-05-15T15:15:16.434Z,100.00
2023-05-15T15:20:40.532Z,100.00
2023-05-15T15:26:03.420Z,100.00
2023-05-15T15:31:29.324Z,100.00
2023-05-15T15:36:52.619Z,100.00
2023-05-15T15:42:14.947Z,100.00
2023-05-15T15:47:37.365Z,100.00
2023-05-15T15:53:00.527Z,100.00
2023-05-15T15:58:22.891Z,100.00
2023-05-15T16:03:45.174Z,100.00
2023-05-15T16:09:07.957Z,100.00
2023-05-15T16:14:32.230Z,100.00
2023-05-15T16:19:54.512Z,100.00
2023-05-15T16:25:16.989Z,100.00
2023-05-15T16:30:48.926Z,100.00
2023-05-15T16:36:05.771Z,100.00
2023-05-15T16:41:28.484Z,100.00
2023-05-15T16:46:51.590Z,100.00
2023-05-15T16:52:14.266Z,100.00
2023-05-15T16:57:36.764Z,100.00
2023-05-15T17:03:00.819Z,100.00
2023-05-15T17:08:23.265Z,100.00
2023-05-15T17:13:45.887Z,100.00
2023-05-15T17:19:08.359Z,100.00
2023-05-15T17:24:46.363Z,100.00
2023-05-15T17:29:55.690Z,100.00
2023-05-15T17:35:19.327Z,100.00
2023-05-15T17:40:41.816Z,100.00
2023-05-15T17:46:06.116Z,100.00
2023-05-15T17:51:29.200Z,100.00
2023-05-15T17:56:51.728Z,100.00
2023-05-15T18:02:14.356Z,100.00
2023-05-15T18:07:37.093Z,100.00
2023-05-15T18:12:59.584Z,100.00
2023-05-15T18:18:23.304Z,100.00
2023-05-15T18:23:46.160Z,100.00
2023-05-15T18:29:09.037Z,100.00
2023-05-15T18:34:31.554Z,100.00
2023-05-15T18:39:59.073Z,100.00
2023-05-15T18:45:22.340Z,100.00
2023-05-15T18:50:45.947Z,100.00
2023-05-15T18:56:08.714Z,100.00
2023-05-15T19:01:31.262Z,100.00
2023-05-15T19:06:56.444Z,100.00
2023-05-15T19:12:19.427Z,100.00
2023-05-15T19:17:41.722Z,100.00
2023-05-15T19:23:03.978Z,100.00
2023-05-15T19:28:27.129Z,100.00
2023-05-15T19:33:50.175Z,100.00
2023-05-15T19:39:12.460Z,100.00
2023-05-15T19:44:35.584Z,100.00
2023-05-15T19:49:57.843Z,100.00
2023-05-15T19:55:20.463Z,100.00
2023-05-15T20:00:43.638Z,100.00
2023-05-15T20:06:07.350Z,100.00
2023-05-15T20:11:29.664Z,100.00
2023-05-15T20:16:51.990Z,100.00
2023-05-15T20:22:14.243Z,100.00
2023-05-15T20:27:36.590Z,100.00
2023-05-15T20:32:59.022Z,100.00
2023-05-15T20:38:21.557Z,100.00
2023-05-15T20:43:44.257Z,100.00
2023-05-15T20:49:06.500Z,100.00
2023-05-15T20:54:29.504Z,100.00
2023-05-15T20:59:51.729Z,100.00
2023-05-15T21:05:14.551Z,100.00
2023-05-15T21:10:36.806Z,100.00
2023-05-15T21:15:59.878Z,100.00
2023-05-15T21:21:22.180Z,100.00
2023-05-15T21:26:44.446Z,100.00
2023-05-15T21:32:07.113Z,100.00
2023-05-15T21:37:29.358Z,100.00
2023-05-15T21:42:52.909Z,100.00
2023-05-15T21:48:15.178Z,100.00
2023-05-15T21:53:37.998Z,100.00
2023-05-15T21:59:00.888Z,100.00
2023-05-15T22:04:23.302Z,100.00
2023-05-15T22:09:46.429Z,100.00
2023-05-15T22:15:08.669Z,100.00
2023-05-15T22:20:31.499Z,100.00
2023-05-15T22:25:54.222Z,100.00
2023-05-15T22:31:16.834Z,100.00
2023-05-15T22:36:39.785Z,100.00
2023-05-15T22:42:02.024Z,100.00
2023-05-15T22:47:24.321Z,100.00
2023-05-15T22:52:46.804Z,100.00
2023-05-15T22:58:09.184Z,100.00
2023-05-15T23:03:31.703Z,100.00
2023-05-15T23:08:54.099Z,100.00
2023-05-15T23:14:17.760Z,100.00
2023-05-15T23:19:39.997Z,100.00
2023-05-15T23:25:02.349Z,100.00
2023-05-15T23:30:25.851Z,100.00
2023-05-15T23:35:48.489Z,100.00
2023-05-15T23:41:10.710Z,100.00
2023-05-15T23:46:33.087Z,100.00
2023-05-15T23:51:56.185Z,100.00
2023-05-15T23:57:19.097Z,100.00
